sensor_id;sensor_type;location;lat;lon;timestamp;pressure;altitude;pressure_sealevel;temperature;humidity
62800;BME280;48842;51.046;13.796;2023-05-01T00:01:38;100819.34;;;10.75;nan
62800;BME280;48842;51.046;13.796;2023-05-01T00:04:03;100812.31;;;10.71;nan
62800;BME280;48842;51.046;13.796;2023-05-01T00:06:28;100820.16;;;10.69;nan
62800;BME280;48842;51.046;13.796;2023-05-01T00:08:53;100819.22;;;10.65;nan
62800;BME280;48842;51.046;13.796;2023-05-01T00:11:19;100813.06;;;10.60;nan
62800;BME280;48842;51.046;13.796;2023-05-01T00:13:44;100816.50;;;10.58;nan
62800;BME280;48842;51.046;13.796;2023-05-01T00:16:11;100806.91;;;10.58;nan
62800;BME280;48842;51.046;13.796;2023-05-01T00:18:37;100808.66;;;10.56;nan
62800;BME280;48842;51.046;13.796;2023-05-01T00:21:02;100818.19;;;10.53;nan
62800;BME280;48842;51.046;13.796;2023-05-01T00:23:27;100815.50;;;10.46;nan
62800;BME280;48842;51.046;13.796;2023-05-01T00:25:52;100813.69;;;10.41;nan
62800;BME280;48842;51.046;13.796;2023-05-01T00:28:18;100808.38;;;10.35;nan
62800;BME280;48842;51.046;13.796;2023-05-01T00:30:43;100810.03;;;10.29;nan
62800;BME280;48842;51.046;13.796;2023-05-01T00:33:10;100808.25;;;10.25;nan
62800;BME280;48842;51.046;13.796;2023-05-01T00:35:35;100802.94;;;10.19;nan
62800;BME280;48842;51.046;13.796;2023-05-01T00:38:00;100802.00;;;10.16;nan
62800;BME280;48842;51.046;13.796;2023-05-01T00:40:25;100803.72;;;10.13;nan
62800;BME280;48842;51.046;13.796;2023-05-01T00:42:52;100801.97;;;10.12;nan
62800;BME280;48842;51.046;13.796;2023-05-01T00:45:17;100798.44;;;10.10;nan
62800;BME280;48842;51.046;13.796;2023-05-01T00:47:42;100795.78;;;10.09;nan
62800;BME280;48842;51.046;13.796;2023-05-01T00:50:08;100801.00;;;10.07;nan
62800;BME280;48842;51.046;13.796;2023-05-01T00:52:33;100803.56;;;10.03;nan
62800;BME280;48842;51.046;13.796;2023-05-01T00:54:59;100806.13;;;10.00;nan
62800;BME280;48842;51.046;13.796;2023-05-01T00:57:24;100796.50;;;9.97;nan
62800;BME280;48842;51.046;13.796;2023-05-01T00:59:50;100794.69;;;9.91;nan
62800;BME280;48842;51.046;13.796;2023-05-01T01:02:15;100792.91;;;9.89;nan
62800;BME280;48842;51.046;13.796;2023-05-01T01:04:42;100795.47;;;9.84;nan
62800;BME280;48842;51.046;13.796;2023-05-01T01:07:18;100789.31;;;9.82;nan
62800;BME280;48842;51.046;13.796;2023-05-01T01:10:03;100794.53;;;9.81;nan
62800;BME280;48842;51.046;13.796;2023-05-01T01:12:51;100784.91;;;9.78;nan
62800;BME280;48842;51.046;13.796;2023-05-01T01:18:11;100777.88;;;9.74;nan
62800;BME280;48842;51.046;13.796;2023-05-01T01:20:45;100780.44;;;9.72;nan
62800;BME280;48842;51.046;13.796;2023-05-01T01:23:38;100783.00;;;9.68;nan
62800;BME280;48842;51.046;13.796;2023-05-01T01:26:25;100772.50;;;9.65;nan
62800;BME280;48842;51.046;13.796;2023-05-01T01:29:01;100776.84;;;9.63;nan
62800;BME280;48842;51.046;13.796;2023-05-01T01:31:32;100777.66;;;9.60;nan
62800;BME280;48842;51.046;13.796;2023-05-01T01:34:12;100771.56;;;9.58;nan
62800;BME280;48842;51.046;13.796;2023-05-01T01:37:01;100768.84;;;9.53;nan
62800;BME280;48842;51.046;13.796;2023-05-01T01:39:48;100771.38;;;9.49;nan
62800;BME280;48842;51.046;13.796;2023-05-01T01:42:33;100759.22;;;9.49;nan
62800;BME280;48842;51.046;13.796;2023-05-01T01:45:03;100761.81;;;9.48;nan
62800;BME280;48842;51.046;13.796;2023-05-01T01:47:30;100756.53;;;9.46;nan
62800;BME280;48842;51.046;13.796;2023-05-01T01:49:58;100751.25;;;9.43;nan
62800;BME280;48842;51.046;13.796;2023-05-01T01:52:26;100752.09;;;9.40;nan
62800;BME280;48842;51.046;13.796;2023-05-01T01:54:55;100754.75;;;9.42;nan
62800;BME280;48842;51.046;13.796;2023-05-01T01:57:23;100740.75;;;9.40;nan
62800;BME280;48842;51.046;13.796;2023-05-01T01:59:50;100740.69;;;9.35;nan
62800;BME280;48842;51.046;13.796;2023-05-01T02:02:17;100738.88;;;9.31;nan
62800;BME280;48842;51.046;13.796;2023-05-01T02:04:44;100740.56;;;9.28;nan
62800;BME280;48842;51.046;13.796;2023-05-01T02:07:11;100733.59;;;9.28;nan
62800;BME280;48842;51.046;13.796;2023-05-01T02:09:39;100738.81;;;9.28;nan
62800;BME280;48842;51.046;13.796;2023-05-01T02:12:07;100742.28;;;9.27;nan
62800;BME280;48842;51.046;13.796;2023-05-01T02:14:34;100746.66;;;9.26;nan
62800;BME280;48842;51.046;13.796;2023-05-01T02:17:00;100738.78;;;9.25;nan
62800;BME280;48842;51.046;13.796;2023-05-01T02:19:27;100737.91;;;9.23;nan
62800;BME280;48842;51.046;13.796;2023-05-01T02:21:54;100736.09;;;9.19;nan
62800;BME280;48842;51.046;13.796;2023-05-01T02:24:23;100741.25;;;9.14;nan
62800;BME280;48842;51.046;13.796;2023-05-01T02:26:53;100734.28;;;9.15;nan
62800;BME280;48842;51.046;13.796;2023-05-01T02:29:19;100732.47;;;9.12;nan
62800;BME280;48842;51.046;13.796;2023-05-01T02:31:44;100730.69;;;9.09;nan
62800;BME280;48842;51.046;13.796;2023-05-01T02:34:09;100729.75;;;9.04;nan
62800;BME280;48842;51.046;13.796;2023-05-01T02:36:35;100722.75;;;9.03;nan
62800;BME280;48842;51.046;13.796;2023-05-01T02:39:01;100724.44;;;9.00;nan
62800;BME280;48842;51.046;13.796;2023-05-01T02:41:27;100724.41;;;8.97;nan
62800;BME280;48842;51.046;13.796;2023-05-01T02:43:57;100722.63;;;8.96;nan
62800;BME280;48842;51.046;13.796;2023-05-01T02:46:25;100714.78;;;8.96;nan
62800;BME280;48842;51.046;13.796;2023-05-01T02:48:52;100716.50;;;8.94;nan
62800;BME280;48842;51.046;13.796;2023-05-01T02:51:19;100719.94;;;8.91;nan
62800;BME280;48842;51.046;13.796;2023-05-01T02:53:46;100722.50;;;8.86;nan
62800;BME280;48842;51.046;13.796;2023-05-01T02:56:12;100715.47;;;8.84;nan
62800;BME280;48842;51.046;13.796;2023-05-01T02:58:37;100699.78;;;8.82;nan
62800;BME280;48842;51.046;13.796;2023-05-01T03:01:03;100711.84;;;8.77;nan
62800;BME280;48842;51.046;13.796;2023-05-01T03:03:28;100716.13;;;8.72;nan
62800;BME280;48842;51.046;13.796;2023-05-01T03:05:53;100713.44;;;8.67;nan
62800;BME280;48842;51.046;13.796;2023-05-01T03:08:18;100709.94;;;8.67;nan
62800;BME280;48842;51.046;13.796;2023-05-01T03:10:44;100702.09;;;8.67;nan
62800;BME280;48842;51.046;13.796;2023-05-01T03:13:10;100703.84;;;8.66;nan
62800;BME280;48842;51.046;13.796;2023-05-01T03:15:36;100704.66;;;8.64;nan
62800;BME280;48842;51.046;13.796;2023-05-01T03:18:02;100699.41;;;8.61;nan
62800;BME280;48842;51.046;13.796;2023-05-01T03:20:27;100694.13;;;8.58;nan
62800;BME280;48842;51.046;13.796;2023-05-01T03:22:53;100694.13;;;8.58;nan
62800;BME280;48842;51.046;13.796;2023-05-01T03:25:18;100690.63;;;8.57;nan
62800;BME280;48842;51.046;13.796;2023-05-01T03:27:43;100688.00;;;8.57;nan
62800;BME280;48842;51.046;13.796;2023-05-01T03:30:09;100688.91;;;8.58;nan
62800;BME280;48842;51.046;13.796;2023-05-01T03:32:34;100686.31;;;8.59;nan
62800;BME280;48842;51.046;13.796;2023-05-01T03:35:00;100695.91;;;8.59;nan
62800;BME280;48842;51.046;13.796;2023-05-01T03:37:27;100690.66;;;8.59;nan
62800;BME280;48842;51.046;13.796;2023-05-01T03:39:52;100691.50;;;8.58;nan
62800;BME280;48842;51.046;13.796;2023-05-01T03:42:18;100688.84;;;8.54;nan
62800;BME280;48842;51.046;13.796;2023-05-01T03:44:44;100682.69;;;8.52;nan
62800;BME280;48842;51.046;13.796;2023-05-01T03:47:09;100692.28;;;8.52;nan
62800;BME280;48842;51.046;13.796;2023-05-01T03:49:34;100681.81;;;8.50;nan
62800;BME280;48842;51.046;13.796;2023-05-01T03:52:00;100680.88;;;8.48;nan
62800;BME280;48842;51.046;13.796;2023-05-01T03:54:25;100686.09;;;8.48;nan
62800;BME280;48842;51.046;13.796;2023-05-01T03:56:50;100677.44;;;8.49;nan
62800;BME280;48842;51.046;13.796;2023-05-01T03:59:15;100680.03;;;8.49;nan
62800;BME280;48842;51.046;13.796;2023-05-01T04:01:41;100678.28;;;8.48;nan
62800;BME280;48842;51.046;13.796;2023-05-01T04:04:06;100679.97;;;8.45;nan
62800;BME280;48842;51.046;13.796;2023-05-01T04:06:32;100679.00;;;8.41;nan
62800;BME280;48842;51.046;13.796;2023-05-01T04:08:57;100672.91;;;8.42;nan
62800;BME280;48842;51.046;13.796;2023-05-01T04:11:22;100678.22;;;8.45;nan
62800;BME280;48842;51.046;13.796;2023-05-01T04:13:47;100674.78;;;8.46;nan
62800;BME280;48842;51.046;13.796;2023-05-01T04:16:13;100676.56;;;8.49;nan
62800;BME280;48842;51.046;13.796;2023-05-01T04:18:38;100677.47;;;8.51;nan
62800;BME280;48842;51.046;13.796;2023-05-01T04:21:03;100675.75;;;8.51;nan
62800;BME280;48842;51.046;13.796;2023-05-01T04:23:29;100671.38;;;8.52;nan
62800;BME280;48842;51.046;13.796;2023-05-01T04:25:54;100671.41;;;8.53;nan
62800;BME280;48842;51.046;13.796;2023-05-01T04:28:19;100662.75;;;8.56;nan
62800;BME280;48842;51.046;13.796;2023-05-01T04:30:45;100653.25;;;8.61;nan
62800;BME280;48842;51.046;13.796;2023-05-01T04:33:10;100655.06;;;8.64;nan
62800;BME280;48842;51.046;13.796;2023-05-01T04:35:36;100652.50;;;8.67;nan
62800;BME280;48842;51.046;13.796;2023-05-01T04:38:03;100653.41;;;8.67;nan
62800;BME280;48842;51.046;13.796;2023-05-01T04:40:29;100660.38;;;8.70;nan
62800;BME280;48842;51.046;13.796;2023-05-01T04:42:54;100643.88;;;8.72;nan
62800;BME280;48842;51.046;13.796;2023-05-01T04:45:20;100648.31;;;8.77;nan
62800;BME280;48842;51.046;13.796;2023-05-01T04:47:45;100649.22;;;8.80;nan
62800;BME280;48842;51.046;13.796;2023-05-01T04:50:10;100645.75;;;8.81;nan
62800;BME280;48842;51.046;13.796;2023-05-01T04:52:36;100645.78;;;8.83;nan
62800;BME280;48842;51.046;13.796;2023-05-01T04:55:01;100646.72;;;8.85;nan
62800;BME280;48842;51.046;13.796;2023-05-01T04:57:27;100643.25;;;8.87;nan
62800;BME280;48842;51.046;13.796;2023-05-01T04:59:53;100642.44;;;8.91;nan
62800;BME280;48842;51.046;13.796;2023-05-01T05:02:18;100646.88;;;8.96;nan
62800;BME280;48842;51.046;13.796;2023-05-01T05:04:43;100640.88;;;9.01;nan
62800;BME280;48842;51.046;13.796;2023-05-01T05:07:08;100649.63;;;9.05;nan
62800;BME280;48842;51.046;13.796;2023-05-01T05:09:34;100642.69;;;9.07;nan
62800;BME280;48842;51.046;13.796;2023-05-01T05:11:59;100647.09;;;9.11;nan
62800;BME280;48842;51.046;13.796;2023-05-01T05:14:25;100641.03;;;9.14;nan
62800;BME280;48842;51.046;13.796;2023-05-01T05:16:50;100639.34;;;9.16;nan
62800;BME280;48842;51.046;13.796;2023-05-01T05:19:15;100643.72;;;9.20;nan
62800;BME280;48842;51.046;13.796;2023-05-01T05:21:41;100639.44;;;9.23;nan
62800;BME280;48842;51.046;13.796;2023-05-01T05:24:06;100637.72;;;9.25;nan
62800;BME280;48842;51.046;13.796;2023-05-01T05:26:31;100634.28;;;9.30;nan
62800;BME280;48842;51.046;13.796;2023-05-01T05:28:57;100625.63;;;9.34;nan
62800;BME280;48842;51.046;13.796;2023-05-01T05:31:22;100640.53;;;9.39;nan
62800;BME280;48842;51.046;13.796;2023-05-01T05:33:47;100633.69;;;9.48;nan
62800;BME280;48842;51.046;13.796;2023-05-01T05:36:13;100625.03;;;9.55;nan
62800;BME280;48842;51.046;13.796;2023-05-01T05:38:38;100636.50;;;9.65;nan
62800;BME280;48842;51.046;13.796;2023-05-01T05:41:04;100633.13;;;9.75;nan
62800;BME280;48842;51.046;13.796;2023-05-01T05:43:29;100634.09;;;9.83;nan
62800;BME280;48842;51.046;13.796;2023-05-01T05:45:58;100621.13;;;9.92;nan
62800;BME280;48842;51.046;13.796;2023-05-01T05:48:24;100621.25;;;10.03;nan
62800;BME280;48842;51.046;13.796;2023-05-01T05:50:49;100614.34;;;10.13;nan
62800;BME280;48842;51.046;13.796;2023-05-01T05:53:16;100611.88;;;10.25;nan
62800;BME280;48842;51.046;13.796;2023-05-01T05:55:41;100601.53;;;10.38;nan
62800;BME280;48842;51.046;13.796;2023-05-01T05:58:07;100611.22;;;10.48;nan
62800;BME280;48842;51.046;13.796;2023-05-01T06:00:32;100606.94;;;10.56;nan
62800;BME280;48842;51.046;13.796;2023-05-01T06:02:58;100614.88;;;10.65;nan
62800;BME280;48842;51.046;13.796;2023-05-01T06:05:23;100605.34;;;10.75;nan
62800;BME280;48842;51.046;13.796;2023-05-01T06:07:48;100604.53;;;10.86;nan
62800;BME280;48842;51.046;13.796;2023-05-01T06:10:13;100601.97;;;10.96;nan
62800;BME280;48842;51.046;13.796;2023-05-01T06:12:39;100599.47;;;11.10;nan
62800;BME280;48842;51.046;13.796;2023-05-01T06:15:07;100593.44;;;11.25;nan
62800;BME280;48842;51.046;13.796;2023-05-01T06:17:33;100590.00;;;11.42;nan
62800;BME280;48842;51.046;13.796;2023-05-01T06:19:59;100588.31;;;11.58;nan
62800;BME280;48842;51.046;13.796;2023-05-01T06:22:25;100577.88;;;11.70;nan
62800;BME280;48842;51.046;13.796;2023-05-01T06:24:51;100577.91;;;11.82;nan
62800;BME280;48842;51.046;13.796;2023-05-01T06:27:16;100575.34;;;11.93;nan
62800;BME280;48842;51.046;13.796;2023-05-01T06:29:41;100577.13;;;12.02;nan
62800;BME280;48842;51.046;13.796;2023-05-01T06:32:07;100571.88;;;12.11;nan
62800;BME280;48842;51.046;13.796;2023-05-01T06:34:32;100563.13;;;12.20;nan
62800;BME280;48842;51.046;13.796;2023-05-01T06:36:57;100570.16;;;12.30;nan
62800;BME280;48842;51.046;13.796;2023-05-01T06:39:22;100560.53;;;12.38;nan
62800;BME280;48842;51.046;13.796;2023-05-01T06:41:48;100572.78;;;12.47;nan
62800;BME280;48842;51.046;13.796;2023-05-01T06:44:13;100563.13;;;12.54;nan
62800;BME280;48842;51.046;13.796;2023-05-01T06:46:38;100561.38;;;12.62;nan
62800;BME280;48842;51.046;13.796;2023-05-01T06:49:04;100565.75;;;12.68;nan
62800;BME280;48842;51.046;13.796;2023-05-01T06:51:29;100558.72;;;12.74;nan
62800;BME280;48842;51.046;13.796;2023-05-01T06:53:55;100565.72;;;12.85;nan
62800;BME280;48842;51.046;13.796;2023-05-01T06:56:20;100559.56;;;12.95;nan
62800;BME280;48842;51.046;13.796;2023-05-01T06:58:46;100557.78;;;13.06;nan
62800;BME280;48842;51.046;13.796;2023-05-01T07:01:11;100549.00;;;13.17;nan
62800;BME280;48842;51.046;13.796;2023-05-01T07:03:36;100556.88;;;13.27;nan
62800;BME280;48842;51.046;13.796;2023-05-01T07:06:01;100551.56;;;13.38;nan
62800;BME280;48842;51.046;13.796;2023-05-01T07:08:27;100548.00;;;13.50;nan
62800;BME280;48842;51.046;13.796;2023-05-01T07:10:52;100547.97;;;13.63;nan
62800;BME280;48842;51.046;13.796;2023-05-01T07:13:18;100547.00;;;13.76;nan
62800;BME280;48842;51.046;13.796;2023-05-01T07:15:43;100532.03;;;13.87;nan
62800;BME280;48842;51.046;13.796;2023-05-01T07:18:09;100541.59;;;13.99;nan
62800;BME280;48842;51.046;13.796;2023-05-01T07:20:36;100532.75;;;14.09;nan
62800;BME280;48842;51.046;13.796;2023-05-01T07:23:01;100529.16;;;14.18;nan
62800;BME280;48842;51.046;13.796;2023-05-01T07:25:27;100531.72;;;14.27;nan
62800;BME280;48842;51.046;13.796;2023-05-01T07:27:52;100522.00;;;14.37;nan
62800;BME280;48842;51.046;13.796;2023-05-01T07:30:18;100525.41;;;14.45;nan
62800;BME280;48842;51.046;13.796;2023-05-01T07:32:44;100520.97;;;14.51;nan
62800;BME280;48842;51.046;13.796;2023-05-01T07:35:09;100510.38;;;14.57;nan
62800;BME280;48842;51.046;13.796;2023-05-01T07:37:35;100504.19;;;14.61;nan
62800;BME280;48842;51.046;13.796;2023-05-01T07:40:00;100505.94;;;14.65;nan
62800;BME280;48842;51.046;13.796;2023-05-01T07:42:26;100505.91;;;14.68;nan
62800;BME280;48842;51.046;13.796;2023-05-01T07:44:51;100504.13;;;14.70;nan
62800;BME280;48842;51.046;13.796;2023-05-01T07:47:17;100497.94;;;14.73;nan
62800;BME280;48842;51.046;13.796;2023-05-01T07:49:42;100496.19;;;14.75;nan
62800;BME280;48842;51.046;13.796;2023-05-01T07:52:07;100502.28;;;14.78;nan
62800;BME280;48842;51.046;13.796;2023-05-01T07:54:33;100504.03;;;14.79;nan
62800;BME280;48842;51.046;13.796;2023-05-01T07:56:58;100497.84;;;14.82;nan
62800;BME280;48842;51.046;13.796;2023-05-01T07:59:23;100500.47;;;14.83;nan
62800;BME280;48842;51.046;13.796;2023-05-01T08:01:49;100501.31;;;14.87;nan
62800;BME280;48842;51.046;13.796;2023-05-01T08:04:14;100499.50;;;14.94;nan
62800;BME280;48842;51.046;13.796;2023-05-01T08:06:41;100496.78;;;15.00;nan
62800;BME280;48842;51.046;13.796;2023-05-01T08:09:06;100493.19;;;15.06;nan
62800;BME280;48842;51.046;13.796;2023-05-01T08:11:31;100482.56;;;15.12;nan
62800;BME280;48842;51.046;13.796;2023-05-01T08:13:57;100490.38;;;15.18;nan
62800;BME280;48842;51.046;13.796;2023-05-01T08:16:23;100489.44;;;15.24;nan
62800;BME280;48842;51.046;13.796;2023-05-01T08:18:48;100487.63;;;15.29;nan
62800;BME280;48842;51.046;13.796;2023-05-01T08:21:13;100485.78;;;15.34;nan
62800;BME280;48842;51.046;13.796;2023-05-01T08:23:38;100477.78;;;15.40;nan
62800;BME280;48842;51.046;13.796;2023-05-01T08:26:03;100491.78;;;15.47;nan
62800;BME280;48842;51.046;13.796;2023-05-01T08:28:29;100483.78;;;15.51;nan
62800;BME280;48842;51.046;13.796;2023-05-01T08:30:54;100490.72;;;15.59;nan
62800;BME280;48842;51.046;13.796;2023-05-01T08:33:19;100489.78;;;15.64;nan
62800;BME280;48842;51.046;13.796;2023-05-01T08:35:45;100485.25;;;15.71;nan
62800;BME280;48842;51.046;13.796;2023-05-01T08:38:10;100486.03;;;15.78;nan
62800;BME280;48842;51.046;13.796;2023-05-01T08:40:36;100482.44;;;15.85;nan
62800;BME280;48842;51.046;13.796;2023-05-01T08:43:02;100484.06;;;15.95;nan
62800;BME280;48842;51.046;13.796;2023-05-01T08:45:31;100486.56;;;16.03;nan
62800;BME280;48842;51.046;13.796;2023-05-01T08:48:02;100482.88;;;16.12;nan
62800;BME280;48842;51.046;13.796;2023-05-01T08:50:28;100481.88;;;16.19;nan
62800;BME280;48842;51.046;13.796;2023-05-01T08:52:55;100484.44;;;16.27;nan
62800;BME280;48842;51.046;13.796;2023-05-01T08:55:22;100482.63;;;16.29;nan
62800;BME280;48842;51.046;13.796;2023-05-01T08:57:50;100480.78;;;16.32;nan
62800;BME280;48842;51.046;13.796;2023-05-01T09:00:17;100480.72;;;16.37;nan
62800;BME280;48842;51.046;13.796;2023-05-01T09:02:47;100480.63;;;16.42;nan
62800;BME280;48842;51.046;13.796;2023-05-01T09:05:17;100468.25;;;16.44;nan
62800;BME280;48842;51.046;13.796;2023-05-01T09:07:43;100474.34;;;16.49;nan
62800;BME280;48842;51.046;13.796;2023-05-01T09:10:11;100459.28;;;16.52;nan
62800;BME280;48842;51.046;13.796;2023-05-01T09:12:37;100460.97;;;16.56;nan
62800;BME280;48842;51.046;13.796;2023-05-01T09:15:03;100462.63;;;16.62;nan
62800;BME280;48842;51.046;13.796;2023-05-01T09:17:31;100462.53;;;16.67;nan
62800;BME280;48842;51.046;13.796;2023-05-01T09:19:56;100456.28;;;16.71;nan
62800;BME280;48842;51.046;13.796;2023-05-01T09:22:22;100450.91;;;16.75;nan
62800;BME280;48842;51.046;13.796;2023-05-01T09:24:47;100448.19;;;16.79;nan
62800;BME280;48842;51.046;13.796;2023-05-01T09:27:13;100444.63;;;16.81;nan
62800;BME280;48842;51.046;13.796;2023-05-01T09:29:42;100438.41;;;16.84;nan
62800;BME280;48842;51.046;13.796;2023-05-01T09:32:18;100440.97;;;16.87;nan
62800;BME280;48842;51.046;13.796;2023-05-01T09:34:47;100439.13;;;16.92;nan
62800;BME280;48842;51.046;13.796;2023-05-01T09:37:31;100428.44;;;16.97;nan
62800;BME280;48842;51.046;13.796;2023-05-01T09:40:03;100423.06;;;17.01;nan
62800;BME280;48842;51.046;13.796;2023-05-01T09:42:30;100420.28;;;17.07;nan
62800;BME280;48842;51.046;13.796;2023-05-01T09:44:59;100419.28;;;17.13;nan
62800;BME280;48842;51.046;13.796;2023-05-01T09:47:28;100412.09;;;17.18;nan
62800;BME280;48842;51.046;13.796;2023-05-01T09:49:55;100416.34;;;17.25;nan
62800;BME280;48842;51.046;13.796;2023-05-01T09:52:30;100407.38;;;17.33;nan
62800;BME280;48842;51.046;13.796;2023-05-01T09:55:11;100408.16;;;17.38;nan
62800;BME280;48842;51.046;13.796;2023-05-01T09:57:37;100402.69;;;17.44;nan
62800;BME280;48842;51.046;13.796;2023-05-01T10:00:03;100401.75;;;17.47;nan
62800;BME280;48842;51.046;13.796;2023-05-01T10:02:32;100399.91;;;17.50;nan
62800;BME280;48842;51.046;13.796;2023-05-01T10:04:57;100398.03;;;17.55;nan
62800;BME280;48842;51.046;13.796;2023-05-01T10:07:24;100397.03;;;17.59;nan
62800;BME280;48842;51.046;13.796;2023-05-01T10:09:50;100386.38;;;17.62;nan
62800;BME280;48842;51.046;13.796;2023-05-01T10:12:23;100381.00;;;17.66;nan
62800;BME280;48842;51.046;13.796;2023-05-01T10:14:55;100385.31;;;17.68;nan
62800;BME280;48842;51.046;13.796;2023-05-01T10:17:22;100376.41;;;17.72;nan
62800;BME280;48842;51.046;13.796;2023-05-01T10:19:47;100370.97;;;17.78;nan
62800;BME280;48842;51.046;13.796;2023-05-01T10:22:13;100368.16;;;17.85;nan
62800;BME280;48842;51.046;13.796;2023-05-01T10:24:39;100366.16;;;17.94;nan
62800;BME280;48842;51.046;13.796;2023-05-01T10:27:05;100362.44;;;18.02;nan
62800;BME280;48842;51.046;13.796;2023-05-01T10:29:33;100354.25;;;18.11;nan
62800;BME280;48842;51.046;13.796;2023-05-01T10:32:00;100346.97;;;18.18;nan
62800;BME280;48842;51.046;13.796;2023-05-01T10:34:27;100347.66;;;18.26;nan
62800;BME280;48842;51.046;13.796;2023-05-01T10:37:03;100337.72;;;18.34;nan
62800;BME280;48842;51.046;13.796;2023-05-01T10:39:37;100337.47;;;18.42;nan
62800;BME280;48842;51.046;13.796;2023-05-01T10:42:04;100346.06;;;18.52;nan
62800;BME280;48842;51.046;13.796;2023-05-01T10:44:30;100341.38;;;18.60;nan
62800;BME280;48842;51.046;13.796;2023-05-01T10:46:55;100343.88;;;18.64;nan
62800;BME280;48842;51.046;13.796;2023-05-01T10:49:21;100334.03;;;18.70;nan
62800;BME280;48842;51.046;13.796;2023-05-01T10:54:28;100324.75;;;18.83;nan
62800;BME280;48842;51.046;13.796;2023-05-01T10:56:56;100319.13;;;18.95;nan
62800;BME280;48842;51.046;13.796;2023-05-01T10:59:22;100305.41;;;19.09;nan
62800;BME280;48842;51.046;13.796;2023-05-01T11:01:48;100307.53;;;19.26;nan
62800;BME280;48842;51.046;13.796;2023-05-01T11:12:08;100292.50;;;19.79;nan
62800;BME280;48842;51.046;13.796;2023-05-01T11:22:31;100276.72;;;19.99;nan
62800;BME280;48842;51.046;13.796;2023-05-01T11:24:57;100272.97;;;20.05;nan
62800;BME280;48842;51.046;13.796;2023-05-01T11:27:22;100264.88;;;20.08;nan
62800;BME280;48842;51.046;13.796;2023-05-01T11:29:48;100271.81;;;20.12;nan
62800;BME280;48842;51.046;13.796;2023-05-01T11:32:16;100258.34;;;20.17;nan
62800;BME280;48842;51.046;13.796;2023-05-01T11:34:42;100259.97;;;20.21;nan
62800;BME280;48842;51.046;13.796;2023-05-01T11:37:08;100258.97;;;20.23;nan
62800;BME280;48842;51.046;13.796;2023-05-01T11:39:33;100252.78;;;20.23;nan
62800;BME280;48842;51.046;13.796;2023-05-01T11:42:08;100241.34;;;20.21;nan
62800;BME280;48842;51.046;13.796;2023-05-01T11:44:34;100240.53;;;20.19;nan
62800;BME280;48842;51.046;13.796;2023-05-01T11:46:59;100240.63;;;20.16;nan
62800;BME280;48842;51.046;13.796;2023-05-01T11:49:26;100240.69;;;20.14;nan
62800;BME280;48842;51.046;13.796;2023-05-01T11:51:56;100237.13;;;20.15;nan
62800;BME280;48842;51.046;13.796;2023-05-01T11:54:22;100229.94;;;20.17;nan
62800;BME280;48842;51.046;13.796;2023-05-01T11:56:56;100212.09;;;20.21;nan
62800;BME280;48842;51.046;13.796;2023-05-01T11:59:22;100202.94;;;20.28;nan
62800;BME280;48842;51.046;13.796;2023-05-01T12:01:48;100199.22;;;20.32;nan
62800;BME280;48842;51.046;13.796;2023-05-01T12:04:23;100195.38;;;20.39;nan
62800;BME280;48842;51.046;13.796;2023-05-01T12:06:48;100193.19;;;20.51;nan
62800;BME280;48842;51.046;13.796;2023-05-01T12:09:19;100183.91;;;20.61;nan
62800;BME280;48842;51.046;13.796;2023-05-01T12:11:50;100167.69;;;20.67;nan
62800;BME280;48842;51.046;13.796;2023-05-01T12:14:16;100174.63;;;20.71;nan
62800;BME280;48842;51.046;13.796;2023-05-01T12:16:42;100164.84;;;20.72;nan
62800;BME280;48842;51.046;13.796;2023-05-01T12:19:08;100168.41;;;20.72;nan
62800;BME280;48842;51.046;13.796;2023-05-01T12:21:36;100164.97;;;20.69;nan
62800;BME280;48842;51.046;13.796;2023-05-01T12:24:09;100156.22;;;20.65;nan
62800;BME280;48842;51.046;13.796;2023-05-01T12:26:34;100150.06;;;20.65;nan
62800;BME280;48842;51.046;13.796;2023-05-01T12:29:03;100151.59;;;20.70;nan
62800;BME280;48842;51.046;13.796;2023-05-01T12:31:29;100144.09;;;20.80;nan
62800;BME280;48842;51.046;13.796;2023-05-01T12:33:57;100137.31;;;20.93;nan
62800;BME280;48842;51.046;13.796;2023-05-01T12:36:23;100147.41;;;21.07;nan
62800;BME280;48842;51.046;13.796;2023-05-01T12:39:06;100129.03;;;21.22;nan
62800;BME280;48842;51.046;13.796;2023-05-01T12:46:51;100127.50;;;21.76;nan
62800;BME280;48842;51.046;13.796;2023-05-01T12:49:18;100128.66;;;22.09;nan
62800;BME280;48842;51.046;13.796;2023-05-01T12:51:50;100124.66;;;22.56;nan
62800;BME280;48842;51.046;13.796;2023-05-01T12:54:20;100122.34;;;23.70;nan
62800;BME280;48842;51.046;13.796;2023-05-01T12:56:46;100108.50;;;25.20;nan
62800;BME280;48842;51.046;13.796;2023-05-01T12:59:25;100108.50;;;25.20;nan
62800;BME280;48842;51.046;13.796;2023-05-01T13:02:01;100087.94;;;28.76;nan
62800;BME280;48842;51.046;13.796;2023-05-01T13:04:27;100085.59;;;30.32;nan
62800;BME280;48842;51.046;13.796;2023-05-01T13:06:53;100087.03;;;31.83;nan
62800;BME280;48842;51.046;13.796;2023-05-01T13:09:23;100082.81;;;33.28;nan
62800;BME280;48842;51.046;13.796;2023-05-01T13:12:15;100077.66;;;34.46;nan
62800;BME280;48842;51.046;13.796;2023-05-01T13:14:41;100075.47;;;35.11;nan
62800;BME280;48842;51.046;13.796;2023-05-01T13:17:10;100072.72;;;35.64;nan
62800;BME280;48842;51.046;13.796;2023-05-01T13:19:36;100070.31;;;36.04;nan
62800;BME280;48842;51.046;13.796;2023-05-01T13:22:03;100072.41;;;36.26;nan
62800;BME280;48842;51.046;13.796;2023-05-01T13:24:36;100072.13;;;36.46;nan
62800;BME280;48842;51.046;13.796;2023-05-01T13:27:02;100064.28;;;36.51;nan
62800;BME280;48842;51.046;13.796;2023-05-01T13:29:27;100064.81;;;36.63;nan
62800;BME280;48842;51.046;13.796;2023-05-01T13:31:54;100060.66;;;37.16;nan